createdAt,value
2019-04-10T00:00:44.077Z,100299
2019-04-10T00:01:42.810Z,100296
2019-04-10T00:02:43.784Z,100296
2019-04-10T00:03:43.898Z,100298
2019-04-10T00:04:43.274Z,100299
2019-04-10T00:05:43.078Z,100299
2019-04-10T00:06:43.249Z,100296
2019-04-10T00:07:43.812Z,100301
2019-04-10T00:08:44.155Z,100300
2019-04-10T00:09:43.662Z,100299
2019-04-10T00:10:43.867Z,100300
2019-04-10T00:11:43.878Z,100299
2019-04-10T00:12:43.961Z,100295
2019-04-10T00:13:44.907Z,100298
2019-04-10T00:14:44.952Z,100302
2019-04-10T00:15:44.230Z,100303
2019-04-10T00:16:44.600Z,100297
2019-04-10T00:17:45.053Z,100302
2019-04-10T00:18:44.654Z,100295
2019-04-10T00:19:45.574Z,100303
2019-04-10T00:20:44.944Z,100306
2019-04-10T00:21:45.200Z,100298
2019-04-10T00:22:45.083Z,100305
2019-04-10T00:23:45.081Z,100307
2019-04-10T00:24:46.172Z,100302
2019-04-10T00:25:45.397Z,100305
2019-04-10T00:26:45.894Z,100306
2019-04-10T00:27:45.786Z,100302
2019-04-10T00:28:45.701Z,100304
2019-04-10T00:29:46.741Z,100302
2019-04-10T00:30:46.189Z,100306
2019-04-10T00:31:46.592Z,100306
2019-04-10T00:32:46.217Z,100303
2019-04-10T00:33:47.191Z,100304
2019-04-10T00:34:47.456Z,100306
2019-04-10T00:35:47.695Z,100303
2019-04-10T00:36:46.465Z,100304
2019-04-10T00:37:47.118Z,100305
2019-04-10T00:38:46.737Z,100309
2019-04-10T00:39:46.971Z,100308
2019-04-10T00:40:47.834Z,100303
2019-04-10T00:41:48.250Z,100307
2019-04-10T00:42:48.292Z,100300
2019-04-10T00:43:47.367Z,100304
2019-04-10T00:44:48.021Z,100303
2019-04-10T00:45:47.449Z,100307
2019-04-10T00:46:48.532Z,100309
2019-04-10T00:47:48.760Z,100307
2019-04-10T00:48:48.186Z,100305
2019-04-10T00:49:48.258Z,100310
2019-04-10T00:50:48.201Z,100311
2019-04-10T00:51:48.515Z,100314
2019-04-10T00:52:48.508Z,100312
2019-04-10T00:53:49.640Z,100311
2019-04-10T00:54:48.977Z,100318
2019-04-10T00:55:49.981Z,100313
2019-04-10T00:56:49.247Z,100316
2019-04-10T00:57:49.774Z,100314
2019-04-10T00:58:49.043Z,100312
2019-04-10T00:59:49.216Z,100314
2019-04-10T01:00:51.560Z,100311
2019-04-10T01:01:49.417Z,100313
2019-04-10T01:02:49.508Z,100313
2019-04-10T01:03:50.860Z,100313
2019-04-10T01:04:50.801Z,100312
2019-04-10T01:05:49.785Z,100309
2019-04-10T01:06:50.430Z,100313
2019-04-10T01:07:50.052Z,100314
2019-04-10T01:08:51.019Z,100310
2019-04-10T01:09:50.373Z,100310
2019-04-10T01:10:50.545Z,100310
2019-04-10T01:11:50.470Z,100310
2019-04-10T01:12:50.625Z,100315
2019-04-10T01:13:51.679Z,100309
2019-04-10T01:14:50.873Z,100306
2019-04-10T01:15:53.105Z,100313
2019-04-10T01:16:51.491Z,100310
2019-04-10T01:17:51.309Z,100311
2019-04-10T01:18:51.289Z,100311
2019-04-10T01:19:52.316Z,100310
2019-04-10T01:20:51.457Z,100310
2019-04-10T01:21:52.493Z,100316
2019-04-10T01:22:52.637Z,100314
2019-04-10T01:23:53.209Z,100315
2019-04-10T01:24:52.302Z,100317
2019-04-10T01:25:52.051Z,100319
2019-04-10T01:26:53.727Z,100315
2019-04-10T01:27:52.464Z,100316
2019-04-10T01:28:54.001Z,100315
2019-04-10T01:29:53.586Z,100317
2019-04-10T01:30:53.556Z,100315
2019-04-10T01:31:53.128Z,100323
2019-04-10T01:32:52.813Z,100319
2019-04-10T01:33:52.789Z,100316
2019-04-10T01:34:53.893Z,100314
2019-04-10T01:35:54.313Z,100317
2019-04-10T01:36:53.003Z,100317
2019-04-10T01:37:58.136Z,100315
2019-04-10T01:38:54.124Z,100315
2019-04-10T01:39:53.478Z,100319
2019-04-10T01:40:53.536Z,100321
2019-04-10T01:41:54.358Z,100319
2019-04-10T01:43:08.053Z,100315
2019-04-10T01:43:55.184Z,100319
2019-04-10T01:44:53.931Z,100315
2019-04-10T01:45:54.050Z,100317
2019-04-10T01:46:54.942Z,100315
2019-04-10T01:47:55.231Z,100315
2019-04-10T01:48:55.541Z,100312
2019-04-10T01:49:55.540Z,100314
2019-04-10T01:50:55.752Z,100316
2019-04-10T01:51:55.275Z,100316
2019-04-10T01:52:55.520Z,100314
2019-04-10T01:53:55.051Z,100313
2019-04-10T01:54:55.524Z,100315
2019-04-10T01:55:57.512Z,100313
2019-04-10T01:56:55.671Z,100311
2019-04-10T01:57:56.720Z,100317
2019-04-10T01:58:57.247Z,100314
2019-04-10T01:59:56.295Z,100313
2019-04-10T02:00:56.341Z,100314
2019-04-10T02:01:56.805Z,100310
2019-04-10T02:02:56.333Z,100310
2019-04-10T02:03:56.553Z,100313
2019-04-10T02:04:56.818Z,100312
2019-04-10T02:05:57.778Z,100308
2019-04-10T02:06:58.038Z,100307
2019-04-10T02:08:02.900Z,100313
2019-04-10T02:08:58.367Z,100315
2019-04-10T02:09:57.368Z,100314
2019-04-10T02:10:58.348Z,100315
2019-04-10T02:11:58.610Z,100313
2019-04-10T02:12:57.670Z,100317
2019-04-10T02:13:58.224Z,100318
2019-04-10T02:14:57.974Z,100315
2019-04-10T02:15:59.019Z,100319
2019-04-10T02:16:59.018Z,100320
2019-04-10T02:17:59.299Z,100323
2019-04-10T02:18:59.629Z,100320
2019-04-10T02:19:58.702Z,100319
2019-04-10T02:20:59.085Z,100319
2019-04-10T02:21:58.744Z,100317
2019-04-10T02:22:58.981Z,100312
2019-04-10T02:23:59.054Z,100316
2019-04-10T02:24:59.702Z,100318
2019-04-10T02:25:59.442Z,100314
2019-04-10T02:27:00.242Z,100317
2019-04-10T02:27:59.527Z,100316
2019-04-10T02:29:01.621Z,100317
2019-04-10T02:29:59.964Z,100315
2019-04-10T02:31:00.813Z,100318
2019-04-10T02:31:59.984Z,100315
2019-04-10T02:33:00.182Z,100317
2019-04-10T02:34:01.628Z,100319
2019-04-10T02:35:01.181Z,100314
2019-04-10T02:36:01.423Z,100315
2019-04-10T02:37:02.500Z,100315
2019-04-10T02:38:21.065Z,100316
2019-04-10T02:39:11.839Z,100314
2019-04-10T02:40:03.411Z,100318
2019-04-10T02:41:01.622Z,100316
2019-04-10T02:42:02.809Z,100314
2019-04-10T02:43:03.236Z,100314
2019-04-10T02:44:02.859Z,100315
2019-04-10T02:45:02.783Z,100319
2019-04-10T02:46:03.877Z,100317
2019-04-10T02:47:02.081Z,100318
2019-04-10T02:48:03.395Z,100319
2019-04-10T02:49:04.032Z,100316
2019-04-10T02:50:03.961Z,100316
2019-04-10T02:51:03.025Z,100322
2019-04-10T02:52:02.181Z,100320
2019-04-10T02:53:05.348Z,100321
2019-04-10T02:54:04.948Z,100322
2019-04-10T02:55:03.861Z,100322
2019-04-10T02:56:03.134Z,100324
2019-04-10T02:57:03.532Z,100326
2019-04-10T02:58:03.055Z,100322
2019-04-10T02:59:03.025Z,100326
2019-04-10T03:00:04.894Z,100328
2019-04-10T03:01:04.269Z,100327
2019-04-10T03:02:04.251Z,100328
2019-04-10T03:03:03.685Z,100335
2019-04-10T03:04:03.591Z,100325
2019-04-10T03:05:04.752Z,100330
2019-04-10T03:06:05.175Z,100325
2019-04-10T03:07:04.348Z,100325
2019-04-10T03:08:04.839Z,100326
2019-04-10T03:09:18.730Z,100331
2019-04-10T03:10:14.827Z,100324
2019-04-10T03:11:09.004Z,100325
2019-04-10T03:12:06.108Z,100327
2019-04-10T03:13:05.699Z,100333
2019-04-10T03:14:04.748Z,100327
2019-04-10T03:15:07.483Z,100328
2019-04-10T03:16:07.298Z,100331
2019-04-10T03:17:06.085Z,100334
2019-04-10T03:18:06.501Z,100337
2019-04-10T03:19:05.417Z,100338
2019-04-10T03:20:05.798Z,100336
2019-04-10T03:21:05.478Z,100333
2019-04-10T03:22:07.337Z,100338
2019-04-10T03:23:05.722Z,100337
2019-04-10T03:24:06.252Z,100337
2019-04-10T03:25:05.977Z,100333
2019-04-10T03:26:06.125Z,100339
2019-04-10T03:27:06.330Z,100335
2019-04-10T03:28:07.084Z,100339
2019-04-10T03:29:07.335Z,100334
2019-04-10T03:30:07.539Z,100339
2019-04-10T03:31:07.919Z,100340
2019-04-10T03:32:07.252Z,100334
2019-04-10T03:33:11.984Z,100338
2019-04-10T03:34:10.775Z,100334
2019-04-10T03:35:08.562Z,100340
2019-04-10T03:36:07.672Z,100337
2019-04-10T03:37:09.494Z,100346
2019-04-10T03:38:07.912Z,100341
2019-04-10T03:39:08.962Z,100342
2019-04-10T03:40:09.074Z,100344
2019-04-10T03:41:08.220Z,100346
2019-04-10T03:42:09.198Z,100343
2019-04-10T03:43:08.155Z,100348
2019-04-10T03:44:08.316Z,100347
2019-04-10T03:45:09.267Z,100345
2019-04-10T03:46:08.897Z,100344
2019-04-10T03:47:09.127Z,100349
2019-04-10T03:48:08.933Z,100345
2019-04-10T03:49:09.633Z,100350
2019-04-10T03:50:09.111Z,100348
2019-04-10T03:51:10.209Z,100351
2019-04-10T03:52:10.085Z,100353
2019-04-10T03:53:10.754Z,100349
2019-04-10T03:54:11.192Z,100350
2019-04-10T03:55:10.453Z,100352
2019-04-10T03:56:09.836Z,100348
2019-04-10T03:57:10.224Z,100350
2019-04-10T03:58:09.968Z,100348
2019-04-10T03:59:10.160Z,100358
2019-04-10T04:00:10.269Z,100352
2019-04-10T04:01:11.334Z,100353
2019-04-10T04:02:11.535Z,100353
2019-04-10T04:03:12.667Z,100352
2019-04-10T04:04:10.534Z,100354
2019-04-10T04:05:10.780Z,100355
2019-04-10T04:06:11.884Z,100353
2019-04-10T04:07:11.350Z,100358
2019-04-10T04:08:13.077Z,100355
2019-04-10T04:09:13.478Z,100360
2019-04-10T04:10:12.773Z,100356
2019-04-10T04:11:11.455Z,100356
2019-04-10T04:12:12.312Z,100358
2019-04-10T04:13:11.569Z,100353
2019-04-10T04:14:12.362Z,100355
2019-04-10T04:15:11.776Z,100352
2019-04-10T04:16:12.908Z,100356
2019-04-10T04:17:11.963Z,100355
2019-04-10T04:18:12.967Z,100354
2019-04-10T04:19:13.526Z,100352
2019-04-10T04:20:12.803Z,100358
2019-04-10T04:21:12.395Z,100356
2019-04-10T04:22:12.555Z,100352
2019-04-10T04:23:13.669Z,100356
2019-04-10T04:24:12.581Z,100363
2019-04-10T04:25:14.768Z,100361
2019-04-10T04:26:12.803Z,100358
2019-04-10T04:27:13.243Z,100359
2019-04-10T04:28:13.086Z,100356
2019-04-10T04:29:13.035Z,100363
2019-04-10T04:30:14.661Z,100361
2019-04-10T04:31:13.194Z,100360
2019-04-10T04:32:15.381Z,100365
2019-04-10T04:33:15.325Z,100366
2019-04-10T04:34:14.199Z,100366
2019-04-10T04:35:15.347Z,100368
2019-04-10T04:36:13.754Z,100371
2019-04-10T04:37:13.765Z,100371
2019-04-10T04:38:16.171Z,100375
2019-04-10T04:39:21.494Z,100379
2019-04-10T04:40:14.846Z,100375
2019-04-10T04:41:13.903Z,100374
2019-04-10T04:42:15.121Z,100377
2019-04-10T04:43:15.218Z,100379
2019-04-10T04:44:14.632Z,100375
2019-04-10T04:45:14.468Z,100377
2019-04-10T04:46:14.526Z,100384
2019-04-10T04:47:15.563Z,100381
2019-04-10T04:48:14.817Z,100382
2019-04-10T04:49:15.791Z,100382
2019-04-10T04:50:15.866Z,100379
2019-04-10T04:51:15.409Z,100378
2019-04-10T04:52:16.153Z,100380
2019-04-10T04:53:16.222Z,100387
2019-04-10T04:54:15.433Z,100385
2019-04-10T04:55:15.479Z,100387
2019-04-10T04:56:15.770Z,100393
2019-04-10T04:57:16.988Z,100392
2019-04-10T04:58:16.020Z,100395
2019-04-10T04:59:16.248Z,100392
2019-04-10T05:00:15.746Z,100399
2019-04-10T05:01:16.855Z,100394
2019-04-10T05:02:15.931Z,100400
2019-04-10T05:03:16.316Z,100399
2019-04-10T05:04:17.312Z,100404
2019-04-10T05:05:16.448Z,100398
2019-04-10T05:06:16.232Z,100402
2019-04-10T05:07:16.851Z,100399
2019-04-10T05:08:17.383Z,100402
2019-04-10T05:09:27.098Z,100407
2019-04-10T05:10:17.498Z,100404
2019-04-10T05:11:16.629Z,100406
2019-04-10T05:12:17.986Z,100412
2019-04-10T05:13:17.917Z,100411
2019-04-10T05:14:19.466Z,100411
2019-04-10T05:15:17.058Z,100409
2019-04-10T05:16:18.686Z,100415
2019-04-10T05:17:18.274Z,100415
2019-04-10T05:18:17.643Z,100418
2019-04-10T05:19:17.601Z,100417
2019-04-10T05:20:17.613Z,100422
2019-04-10T05:21:19.127Z,100421
2019-04-10T05:22:18.734Z,100420
2019-04-10T05:23:18.038Z,100425
2019-04-10T05:24:17.858Z,100430
2019-04-10T05:25:18.992Z,100430
2019-04-10T05:26:18.632Z,100426
2019-04-10T05:27:19.157Z,100431
2019-04-10T05:28:18.985Z,100435
2019-04-10T05:29:18.261Z,100437
2019-04-10T05:30:19.272Z,100437
2019-04-10T05:31:19.350Z,100438
2019-04-10T05:32:18.249Z,100438
2019-04-10T05:33:18.442Z,100441
2019-04-10T05:34:19.854Z,100439
2019-04-10T05:35:19.330Z,100437
2019-04-10T05:36:21.486Z,100441
2019-04-10T05:37:19.112Z,100443
2019-04-10T05:38:19.080Z,100451
2019-04-10T05:39:19.133Z,100453
2019-04-10T05:40:20.968Z,100453
2019-04-10T05:41:19.645Z,100452
2019-04-10T05:42:19.140Z,100453
2019-04-10T05:43:20.297Z,100460
2019-04-10T05:44:20.079Z,100458
2019-04-10T05:45:19.436Z,100458
2019-04-10T05:46:21.438Z,100456
2019-04-10T05:47:19.578Z,100459
2019-04-10T05:48:21.823Z,100460
2019-04-10T05:49:20.624Z,100463
2019-04-10T05:50:21.435Z,100458
2019-04-10T05:51:21.313Z,100459
2019-04-10T05:52:22.053Z,100459
2019-04-10T05:53:21.190Z,100459
2019-04-10T05:54:20.091Z,100459
2019-04-10T05:55:20.461Z,100456
2019-04-10T05:56:20.673Z,100463
2019-04-10T05:57:21.301Z,100463
2019-04-10T05:58:20.383Z,100464
2019-04-10T05:59:23.877Z,100466
2019-04-10T06:00:20.843Z,100470
2019-04-10T06:01:30.323Z,100468
2019-04-10T06:02:23.033Z,100469
2019-04-10T06:03:22.709Z,100463
2019-04-10T06:04:21.090Z,100474
2019-04-10T06:05:22.130Z,100473
2019-04-10T06:06:22.191Z,100475
2019-04-10T06:07:21.547Z,100478
2019-04-10T06:08:21.567Z,100479
2019-04-10T06:09:21.252Z,100481
2019-04-10T06:10:24.641Z,100480
2019-04-10T06:11:22.528Z,100480
2019-04-10T06:12:22.791Z,100486
2019-04-10T06:13:22.552Z,100479
2019-04-10T06:14:22.124Z,100482
2019-04-10T06:15:23.089Z,100485
2019-04-10T06:16:22.412Z,100484
2019-04-10T06:17:22.675Z,100485
2019-04-10T06:18:22.837Z,100486
2019-04-10T06:19:22.332Z,100489
2019-04-10T06:20:22.977Z,100483
2019-04-10T06:21:23.075Z,100479
2019-04-10T06:22:22.874Z,100485
2019-04-10T06:23:23.379Z,100488
2019-04-10T06:24:22.789Z,100484
2019-04-10T06:25:24.644Z,100479
2019-04-10T06:26:23.795Z,100481
2019-04-10T06:27:22.520Z,100484
2019-04-10T06:28:24.547Z,100485
2019-04-10T06:29:23.982Z,100482
2019-04-10T06:30:23.866Z,100480
2019-04-10T06:31:23.231Z,100484
2019-04-10T06:32:23.260Z,100479
2019-04-10T06:33:24.130Z,100477
2019-04-10T06:34:23.088Z,100478
2019-04-10T06:35:24.015Z,100478
2019-04-10T06:36:23.489Z,100482
2019-04-10T06:37:24.145Z,100480
2019-04-10T06:38:23.353Z,100488
2019-04-10T06:39:24.753Z,100479
2019-04-10T06:40:25.778Z,100481
2019-04-10T06:41:24.803Z,100483
2019-04-10T06:42:26.548Z,100485
2019-04-10T06:43:25.227Z,100487
2019-04-10T06:44:24.075Z,100484
2019-04-10T06:45:24.226Z,100481
2019-04-10T06:46:25.582Z,100483
2019-04-10T06:47:26.494Z,100480
2019-04-10T06:48:25.934Z,100477
2019-04-10T06:49:24.912Z,100476
2019-04-10T06:50:25.222Z,100480
2019-04-10T06:51:27.163Z,100476
2019-04-10T06:52:26.893Z,100479
2019-04-10T06:53:26.917Z,100476
2019-04-10T06:54:26.825Z,100478
2019-04-10T06:55:25.362Z,100482
2019-04-10T06:56:25.666Z,100481
2019-04-10T06:57:26.954Z,100483
2019-04-10T06:58:27.605Z,100481
2019-04-10T06:59:28.184Z,100481
2019-04-10T07:00:26.217Z,100482
2019-04-10T07:01:38.896Z,100484
2019-04-10T07:02:30.566Z,100483
2019-04-10T07:03:38.317Z,100486
2019-04-10T07:04:28.366Z,100485
2019-04-10T07:05:37.826Z,100484
2019-04-10T07:06:43.668Z,100485
2019-04-10T07:07:42.193Z,100485
2019-04-10T07:08:28.147Z,100486
2019-04-10T07:09:27.191Z,100497
2019-04-10T07:10:32.158Z,100498
2019-04-10T07:11:30.808Z,100492
2019-04-10T07:12:29.981Z,100493
2019-04-10T07:13:28.062Z,100494
2019-04-10T07:14:28.794Z,100499
2019-04-10T07:15:27.601Z,100492
2019-04-10T07:16:32.313Z,100495
2019-04-10T07:17:35.461Z,100492
2019-04-10T07:18:37.214Z,100496
2019-04-10T07:19:30.194Z,100500
2019-04-10T07:20:31.601Z,100508
2019-04-10T07:21:35.907Z,100494
2019-04-10T07:22:29.597Z,100497
2019-04-10T07:23:33.437Z,100496
2019-04-10T07:24:27.514Z,100497
2019-04-10T07:25:30.544Z,100500
2019-04-10T07:26:35.320Z,100497
2019-04-10T07:27:36.854Z,100505
2019-04-10T07:28:30.719Z,100494
2019-04-10T07:29:29.584Z,100496
2019-04-10T07:30:29.818Z,100488
2019-04-10T07:31:30.258Z,100501
2019-04-10T07:32:29.847Z,100494
2019-04-10T07:33:28.856Z,100494
2019-04-10T07:34:29.599Z,100495
2019-04-10T07:35:28.532Z,100507
2019-04-10T07:36:28.765Z,100502
2019-04-10T07:37:28.712Z,100507
2019-04-10T07:38:28.439Z,100503
2019-04-10T07:39:30.363Z,100500
2019-04-10T07:40:34.904Z,100502
2019-04-10T07:41:27.787Z,100503
2019-04-10T07:42:34.335Z,100506
2019-04-10T07:43:30.605Z,100505
2019-04-10T07:44:27.765Z,100504
2019-04-10T07:45:28.093Z,100504
2019-04-10T07:46:31.204Z,100511
2019-04-10T07:47:33.639Z,100509
2019-04-10T07:48:31.448Z,100514
2019-04-10T07:49:30.806Z,100513
2019-04-10T07:50:30.167Z,100515
2019-04-10T07:51:29.844Z,100513
2019-04-10T07:52:32.912Z,100517
2019-04-10T07:53:39.466Z,100517
2019-04-10T07:54:36.178Z,100517
2019-04-10T07:55:29.517Z,100521
2019-04-10T07:56:39.567Z,100525
2019-04-10T07:57:29.279Z,100520
2019-04-10T07:58:31.214Z,100515
2019-04-10T07:59:29.219Z,100515
2019-04-10T08:00:30.694Z,100514
2019-04-10T08:01:28.448Z,100521
2019-04-10T08:02:29.586Z,100517
2019-04-10T08:03:31.018Z,100524
2019-04-10T08:04:31.091Z,100518
2019-04-10T08:05:29.834Z,100526
2019-04-10T08:06:29.093Z,100524
2019-04-10T08:07:34.470Z,100522
2019-04-10T08:08:31.747Z,100520
2019-04-10T08:09:30.549Z,100521
2019-04-10T08:10:30.672Z,100521
2019-04-10T08:11:30.001Z,100521
2019-04-10T08:12:39.233Z,100521
2019-04-10T08:13:32.983Z,100524
2019-04-10T08:14:31.495Z,100520
2019-04-10T08:15:31.556Z,100520
2019-04-10T08:16:29.159Z,100523
2019-04-10T08:17:48.279Z,100530
2019-04-10T08:18:31.571Z,100520
2019-04-10T08:19:29.820Z,100519
2019-04-10T08:20:32.678Z,100516
2019-04-10T08:21:31.654Z,100520
2019-04-10T08:22:30.780Z,100519
2019-04-10T08:23:30.771Z,100516
2019-04-10T08:24:32.256Z,100521
2019-04-10T08:25:31.076Z,100515
2019-04-10T08:26:30.396Z,100516
2019-04-10T08:27:29.933Z,100519
2019-04-10T08:28:32.809Z,100524
2019-04-10T08:29:30.899Z,100519
2019-04-10T08:30:32.163Z,100522
2019-04-10T08:31:30.784Z,100525
2019-04-10T08:32:30.609Z,100526
2019-04-10T08:33:32.273Z,100527
2019-04-10T08:34:31.950Z,100524
2019-04-10T08:35:29.983Z,100528
2019-04-10T08:36:31.841Z,100528
2019-04-10T08:37:30.239Z,100526
2019-04-10T08:38:30.519Z,100529
2019-04-10T08:39:37.471Z,100528
2019-04-10T08:40:32.137Z,100532
2019-04-10T08:41:31.759Z,100535
2019-04-10T08:42:31.000Z,100534
2019-04-10T08:43:32.384Z,100532
2019-04-10T08:44:32.998Z,100535
2019-04-10T08:45:39.059Z,100530
2019-04-10T08:46:33.618Z,100544
2019-04-10T08:47:31.314Z,100542
2019-04-10T08:48:41.205Z,100536
2019-04-10T08:49:31.311Z,100543
2019-04-10T08:50:36.372Z,100544
2019-04-10T08:51:33.106Z,100537
2019-04-10T08:52:32.553Z,100544
2019-04-10T08:53:34.050Z,100538
2019-04-10T08:54:32.213Z,100544
2019-04-10T08:55:32.384Z,100543
2019-04-10T08:56:30.758Z,100539
2019-04-10T08:58:22.954Z,100541
2019-04-10T08:58:59.733Z,100536
2019-04-10T08:59:56.240Z,100541
2019-04-10T09:00:58.650Z,100538
2019-04-10T09:01:57.737Z,100540
2019-04-10T09:03:00.250Z,100543
2019-04-10T09:03:57.711Z,100540
2019-04-10T09:04:57.317Z,100539
2019-04-10T09:06:09.843Z,100543
2019-04-10T09:14:41.260Z,100539
2019-04-10T09:15:24.233Z,100538
2019-04-10T09:19:12.229Z,100540
2019-04-10T09:21:13.230Z,100535
2019-04-10T09:22:11.977Z,100542
2019-04-10T09:23:24.919Z,100539
2019-04-10T09:24:15.335Z,100538
2019-04-10T09:25:24.931Z,100539
2019-04-10T09:26:13.589Z,100543
2019-04-10T09:27:13.010Z,100541
2019-04-10T09:28:14.006Z,100534
2019-04-10T09:29:16.134Z,100536
2019-04-10T09:30:12.603Z,100529
2019-04-10T09:31:11.467Z,100528
2019-04-10T09:32:18.239Z,100525
2019-04-10T09:33:21.326Z,100529
2019-04-10T09:34:13.782Z,100529
2019-04-10T09:35:14.036Z,100529
2019-04-10T09:36:13.112Z,100524
2019-04-10T09:37:19.997Z,100529
2019-04-10T09:38:37.311Z,100526
2019-04-10T09:39:13.383Z,100523
2019-04-10T09:40:14.370Z,100526
2019-04-10T09:41:13.903Z,100528
2019-04-10T09:42:11.977Z,100523
2019-04-10T09:43:19.387Z,100530
2019-04-10T09:44:14.374Z,100529
2019-04-10T09:45:15.592Z,100522
2019-04-10T09:46:16.535Z,100525
2019-04-10T09:47:37.714Z,100525
2019-04-10T09:49:16.566Z,100523
2019-04-10T09:50:15.307Z,100524
2019-04-10T09:51:16.170Z,100528
2019-04-10T09:52:14.978Z,100537
2019-04-10T09:53:15.105Z,100527
2019-04-10T09:54:13.506Z,100533
2019-04-10T09:55:15.893Z,100530
2019-04-10T09:56:13.885Z,100517
2019-04-10T09:57:13.006Z,100528
2019-04-10T09:58:14.618Z,100529
2019-04-10T09:59:15.996Z,100528
2019-04-10T10:00:15.732Z,100525
2019-04-10T10:01:14.987Z,100525
2019-04-10T10:02:17.647Z,100526
2019-04-10T10:03:13.747Z,100522
2019-04-10T10:04:21.604Z,100523
2019-04-10T10:05:14.589Z,100530
2019-04-10T10:06:24.222Z,100525
2019-04-10T10:07:14.551Z,100518
2019-04-10T10:08:14.511Z,100521
2019-04-10T10:09:15.131Z,100515
2019-04-10T10:10:14.962Z,100517
2019-04-10T10:11:13.841Z,100520
2019-04-10T10:12:13.896Z,100519
2019-04-10T10:13:15.089Z,100512
2019-04-10T10:14:15.336Z,100522
2019-04-10T10:15:14.013Z,100515
2019-04-10T10:16:14.756Z,100517
2019-04-10T10:17:16.779Z,100517
2019-04-10T10:18:17.198Z,100514
2019-04-10T10:19:16.107Z,100516
2019-04-10T10:20:15.484Z,100515
2019-04-10T10:21:14.450Z,100512
2019-04-10T10:22:14.733Z,100521
2019-04-10T10:23:14.346Z,100522
2019-04-10T10:24:14.922Z,100515
2019-04-10T10:25:23.496Z,100518
2019-04-10T10:26:15.281Z,100517
2019-04-10T10:27:14.421Z,100514
2019-04-10T10:28:16.648Z,100520
2019-04-10T10:29:19.711Z,100521
2019-04-10T10:30:15.518Z,100520
2019-04-10T10:31:15.711Z,100523
2019-04-10T10:32:17.018Z,100520
2019-04-10T10:33:15.761Z,100524
2019-04-10T10:34:16.577Z,100521
2019-04-10T10:35:16.757Z,100524
2019-04-10T10:36:15.871Z,100525
2019-04-10T10:37:19.343Z,100522
2019-04-10T10:38:17.155Z,100519
2019-04-10T10:39:21.594Z,100517
2019-04-10T10:40:15.880Z,100520
2019-04-10T10:41:16.329Z,100518
2019-04-10T10:42:16.033Z,100519
2019-04-10T10:52:09.025Z,100531
2019-04-10T10:53:08.099Z,100533
2019-04-10T10:54:08.661Z,100530
2019-04-10T15:04:41.474Z,100583
2019-04-10T15:05:47.349Z,100575
2019-04-10T15:07:24.739Z,100581
2019-04-10T15:08:23.780Z,100585
2019-04-10T15:09:25.808Z,100582
2019-04-10T15:10:23.482Z,100585
2019-04-10T15:11:22.513Z,100586
2019-04-10T15:12:24.369Z,100589
2019-04-10T15:13:24.337Z,100588
2019-04-10T15:14:23.710Z,100588
2019-04-10T15:15:23.954Z,100592
2019-04-10T15:16:23.092Z,100591
2019-04-10T15:17:27.327Z,100592
2019-04-10T15:18:23.778Z,100595
2019-04-10T15:19:22.768Z,100595
2019-04-10T15:20:22.846Z,100592
2019-04-10T15:21:22.901Z,100596
2019-04-10T15:22:24.020Z,100590
2019-04-10T15:23:25.306Z,100586
2019-04-10T15:24:23.753Z,100592
2019-04-10T15:25:24.813Z,100597
2019-04-10T15:26:24.318Z,100596
2019-04-10T15:27:23.587Z,100593
2019-04-10T15:28:23.479Z,100599
2019-04-10T15:29:24.697Z,100601
2019-04-10T15:34:39.587Z,100605
2019-04-10T15:35:39.286Z,100605
2019-04-10T15:36:40.145Z,100607
2019-04-10T15:37:42.893Z,100609
2019-04-10T15:38:40.879Z,100615
2019-04-10T15:39:42.013Z,100610
2019-04-10T15:40:39.807Z,100608
2019-04-10T15:41:41.288Z,100606
2019-04-10T15:42:40.583Z,100607
2019-04-10T15:43:41.279Z,100608
2019-04-10T15:44:41.145Z,100611
2019-04-10T15:45:40.091Z,100608
2019-04-10T15:46:41.546Z,100611
2019-04-10T15:47:50.434Z,100605
2019-04-10T15:48:44.398Z,100602
2019-04-10T15:49:41.052Z,100612
2019-04-10T15:50:41.408Z,100612
2019-04-10T15:51:41.347Z,100605
2019-04-10T15:52:40.616Z,100609
2019-04-10T15:53:41.039Z,100609
2019-04-10T15:54:40.696Z,100612
2019-04-10T15:55:41.215Z,100608
2019-04-10T15:56:40.424Z,100611
2019-04-10T15:57:47.583Z,100613
2019-04-10T15:58:41.688Z,100614
2019-04-10T15:59:40.742Z,100615
2019-04-10T16:00:41.354Z,100615
2019-04-10T16:01:41.878Z,100614
2019-04-10T16:02:40.922Z,100614
2019-04-10T16:03:41.103Z,100615
2019-04-10T16:04:42.313Z,100616
2019-04-10T16:05:41.798Z,100614
2019-04-10T16:06:41.778Z,100615
2019-04-10T16:08:48.178Z,100623
2019-04-10T16:09:51.901Z,100624
2019-04-10T16:10:48.020Z,100622
2019-04-10T16:11:46.873Z,100621
2019-04-10T16:12:47.834Z,100625
2019-04-10T16:13:48.478Z,100625
2019-04-10T16:14:47.013Z,100628
2019-04-10T16:15:47.486Z,100629
2019-04-10T16:16:47.333Z,100622
2019-04-10T16:17:48.097Z,100625
2019-04-10T16:18:48.276Z,100625
2019-04-10T16:19:47.657Z,100628
2019-04-10T16:20:47.332Z,100631
2019-04-10T16:21:47.189Z,100626
2019-04-10T16:22:51.005Z,100628
2019-04-10T16:23:47.847Z,100632
2019-04-10T16:24:47.507Z,100632
2019-04-10T16:25:48.425Z,100632
2019-04-10T16:26:47.674Z,100634
2019-04-10T16:27:47.951Z,100630
2019-04-10T16:28:48.919Z,100631
2019-04-10T16:29:48.770Z,100632
2019-04-10T16:30:48.789Z,100634
2019-04-10T16:31:48.202Z,100636
2019-04-10T16:32:48.307Z,100635
2019-04-10T16:33:50.488Z,100631
2019-04-10T16:34:49.090Z,100636
2019-04-10T16:35:49.107Z,100637
2019-04-10T16:36:50.068Z,100637
2019-04-10T16:37:49.425Z,100637
2019-04-10T16:38:49.095Z,100639
2019-04-10T16:39:58.318Z,100639
2019-04-10T16:40:49.298Z,100639
2019-04-10T16:41:50.301Z,100643
2019-04-10T16:42:48.824Z,100642
2019-04-10T16:43:50.678Z,100638
2019-04-10T16:44:49.163Z,100638
2019-04-10T16:45:49.228Z,100644
2019-04-10T16:46:51.209Z,100644
2019-04-10T16:47:48.358Z,100642
2019-04-10T16:48:50.459Z,100648
2019-04-10T16:49:49.450Z,100646
2019-04-10T16:50:49.771Z,100649
2019-04-10T16:51:48.989Z,100650
2019-04-10T16:52:49.339Z,100648
2019-04-10T16:53:49.743Z,100649
2019-04-10T16:54:49.302Z,100654
2019-04-10T16:55:49.258Z,100653
2019-04-10T16:56:50.414Z,100660
2019-04-10T16:57:51.139Z,100654
2019-04-10T16:58:49.925Z,100652
2019-04-10T16:59:49.362Z,100650
2019-04-10T17:00:50.341Z,100656
2019-04-10T17:01:49.109Z,100654
2019-04-10T17:02:49.204Z,100660
2019-04-10T17:03:49.738Z,100656
2019-04-10T17:04:50.477Z,100651
2019-04-10T17:05:50.082Z,100658
2019-04-10T17:06:50.567Z,100656